Time;durP1;ratioP1;P1;durP2;ratioP2;P2;SDS_P1;SDS_P2;PMS_P1;PMS_P2;Temp;Humidity;BMP_temperature;BMP_pressure;BME280_temperature;BME280_humidity;BME280_pressure;Samples;Min_cycle;Max_cycle;Signal;HPM_P1;HPM_P2
2021/08/02 00:02:28;;;;;;;4.68;2.67;;;;;;;;;;4976082;28;20051;-82
2021/08/02 00:05:00;;;;;;;3.97;2.38;;;;;;;;;;4976004;28;20090;-81
2021/08/02 00:07:29;;;;;;;4.80;2.38;;;;;;;;;;4976207;28;20061;-81
2021/08/02 00:10:10;;;;;;;3.88;2.10;;;;;;;;;;4976420;28;20047;-82
2021/08/02 00:12:44;;;;;;;4.60;2.22;;;;;;;;;;4977126;28;20050;-82
2021/08/02 00:15:20;;;;;;;3.40;2.00;;;;;;;;;;4976410;28;20051;-82
2021/08/02 00:17:50;;;;;;;5.07;2.25;;;;;;;;;;4976353;28;20047;-82
2021/08/02 00:20:26;;;;;;;4.88;2.17;;;;;;;;;;4977230;28;20121;-84
2021/08/02 00:23:05;;;;;;;4.28;2.05;;;;;;;;;;4980361;28;20054;-82
2021/08/02 00:25:54;;;;;;;3.80;2.25;;;;;;;;;;4979379;28;20047;-83
2021/08/02 00:28:31;;;;;;;4.70;2.55;;;;;;;;;;4979873;28;20066;-83
2021/08/02 00:31:02;;;;;;;4.28;2.10;;;;;;;;;;4978746;28;20051;-83
2021/08/02 00:33:29;;;;;;;3.42;2.03;;;;;;;;;;4979134;28;20067;-84
2021/08/02 00:36:17;;;;;;;5.13;2.17;;;;;;;;;;4979519;28;20102;-83
2021/08/02 00:38:53;;;;;;;4.22;2.40;;;;;;;;;;4979686;28;20516;-83
2021/08/02 00:41:39;;;;;;;4.47;2.15;;;;;;;;;;4980810;28;20047;-83
2021/08/02 00:44:53;;;;;;;3.90;2.00;;;;;;;;;;4978455;28;20054;-83
2021/08/02 00:47:36;;;;;;;5.30;2.42;;;;;;;;;;4985802;28;20051;-83
2021/08/02 00:50:15;;;;;;;5.50;2.25;;;;;;;;;;4981157;28;20047;-84
2021/08/02 00:52:44;;;;;;;4.30;2.47;;;;;;;;;;4983408;28;20043;-83
2021/08/02 00:55:16;;;;;;;5.60;2.38;;;;;;;;;;4980595;28;20047;-82
2021/08/02 00:57:47;;;;;;;4.53;2.75;;;;;;;;;;4981443;28;20051;-83
2021/08/02 01:00:20;;;;;;;5.57;2.63;;;;;;;;;;4981174;28;20047;-83
2021/08/02 01:02:54;;;;;;;4.43;2.45;;;;;;;;;;4981561;28;20070;-83
2021/08/02 01:05:21;;;;;;;4.82;2.30;;;;;;;;;;4980383;28;20051;-84
2021/08/02 01:08:10;;;;;;;5.22;2.50;;;;;;;;;;4980873;28;20085;-83
2021/08/02 01:10:43;;;;;;;4.75;2.50;;;;;;;;;;4980604;28;20051;-84
2021/08/02 01:13:17;;;;;;;5.15;2.78;;;;;;;;;;4979926;28;20086;-84
2021/08/02 01:15:54;;;;;;;5.05;2.50;;;;;;;;;;4984969;28;20050;-83
2021/08/02 01:18:25;;;;;;;4.55;2.45;;;;;;;;;;4982344;28;20504;-82
2021/08/02 01:21:00;;;;;;;4.38;2.67;;;;;;;;;;4978303;28;20054;-84
2021/08/02 01:30:15;;;;;;;5.00;2.17;;;;;;;;;;4917622;28;20067;-83
2021/08/02 01:32:43;;;;;;;4.45;2.40;;;;;;;;;;4977770;28;20051;-81
2021/08/02 01:35:13;;;;;;;4.75;2.30;;;;;;;;;;4980412;28;20050;-82
2021/08/02 01:37:41;;;;;;;5.05;2.33;;;;;;;;;;4983435;28;20110;-81
2021/08/02 01:40:20;;;;;;;5.43;2.70;;;;;;;;;;4986048;28;20090;-83
2021/08/02 01:42:53;;;;;;;4.25;2.28;;;;;;;;;;4982394;28;20051;-83
2021/08/02 01:45:24;;;;;;;5.25;2.60;;;;;;;;;;4981197;28;20057;-82
2021/08/02 01:48:03;;;;;;;4.43;2.20;;;;;;;;;;4981669;28;20051;-83
2021/08/02 01:50:50;;;;;;;4.55;2.53;;;;;;;;;;4981205;28;20085;-83
2021/08/02 01:53:26;;;;;;;5.72;2.60;;;;;;;;;;4981079;28;20110;-83
2021/08/02 01:56:10;;;;;;;5.18;2.50;;;;;;;;;;4981915;28;20428;-81
2021/08/02 01:58:49;;;;;;;6.35;2.55;;;;;;;;;;4981807;28;20413;-81
2021/08/02 02:01:24;;;;;;;6.85;2.63;;;;;;;;;;4981745;28;20061;-82
2021/08/02 02:03:52;;;;;;;4.78;3.10;;;;;;;;;;4980530;28;20058;-82
2021/08/02 02:06:30;;;;;;;7.25;5.43;;;;;;;;;;4980710;28;20611;-81
2021/08/02 02:09:04;;;;;;;6.55;4.53;;;;;;;;;;4980898;28;20397;-83
2021/08/02 02:11:35;;;;;;;9.90;6.13;;;;;;;;;;4981454;28;20194;-82
2021/08/02 02:14:15;;;;;;;;;;;;;;;;;;4981279;28;20055;-82
2021/08/02 02:16:53;;;;;;;7.75;5.50;;;;;;;;;;4980768;28;19929;-82
2021/08/02 02:19:34;;;;;;;6.07;3.38;;;;;;;;;;4980473;28;20046;-81
2021/08/02 02:22:16;;;;;;;5.57;3.42;;;;;;;;;;4979906;28;20504;-82
2021/08/02 02:24:46;;;;;;;6.40;3.40;;;;;;;;;;4980092;28;20110;-82
2021/08/02 02:27:21;;;;;;;5.65;3.03;;;;;;;;;;4983822;28;20062;-80
2021/08/02 02:29:49;;;;;;;4.85;2.90;;;;;;;;;;4990146;28;20114;-80
2021/08/02 02:32:20;;;;;;;5.75;2.90;;;;;;;;;;4986704;28;20051;-82
2021/08/02 02:34:52;;;;;;;5.85;3.50;;;;;;;;;;4983325;28;20053;-82
2021/08/02 02:37:24;;;;;;;5.95;3.00;;;;;;;;;;4982856;28;20054;-83
2021/08/02 02:39:52;;;;;;;6.55;3.40;;;;;;;;;;4982184;28;20051;-84
2021/08/02 02:42:26;;;;;;;5.15;2.92;;;;;;;;;;4981238;28;20051;-82
2021/08/02 02:45:04;;;;;;;5.65;3.33;;;;;;;;;;4981131;28;20521;-84
2021/08/02 02:47:33;;;;;;;5.30;3.17;;;;;;;;;;4983540;28;20046;-82
2021/08/02 02:50:03;;;;;;;5.13;3.00;;;;;;;;;;4977708;28;20057;-82
2021/08/02 02:52:34;;;;;;;5.47;3.20;;;;;;;;;;4977033;28;20054;-82
2021/08/02 02:55:05;;;;;;;5.57;3.53;;;;;;;;;;4980200;28;20415;-82
2021/08/02 02:57:38;;;;;;;7.13;3.80;;;;;;;;;;4982297;28;20047;-82
2021/08/02 03:00:07;;;;;;;6.18;3.50;;;;;;;;;;4984932;28;20046;-81
2021/08/02 03:02:35;;;;;;;7.47;3.47;;;;;;;;;;4976179;28;20051;-82
2021/08/02 03:05:03;;;;;;;6.53;3.40;;;;;;;;;;4976033;28;20051;-82
2021/08/02 03:07:32;;;;;;;7.13;3.47;;;;;;;;;;4975736;28;20058;-81
2021/08/02 03:10:01;;;;;;;7.00;3.70;;;;;;;;;;4975931;28;20114;-81
2021/08/02 03:12:30;;;;;;;6.80;3.88;;;;;;;;;;4975730;28;20055;-82
2021/08/02 03:14:58;;;;;;;6.88;3.63;;;;;;;;;;4975297;28;20580;-82
2021/08/02 03:17:25;;;;;;;6.63;3.92;;;;;;;;;;4976186;28;20054;-82
2021/08/02 03:19:52;;;;;;;8.23;4.88;;;;;;;;;;4975627;28;20516;-82
2021/08/02 03:22:25;;;;;;;6.85;4.20;;;;;;;;;;4975535;28;20043;-82
2021/08/02 03:25:01;;;;;;;8.20;4.20;;;;;;;;;;4975443;28;20051;-82
2021/08/02 03:27:29;;;;;;;6.68;4.03;;;;;;;;;;4976110;28;20393;-82
2021/08/02 03:30:04;;;;;;;6.07;3.72;;;;;;;;;;4975744;28;20101;-82
2021/08/02 03:32:34;;;;;;;6.50;3.85;;;;;;;;;;4975955;28;20663;-82
2021/08/02 03:35:04;;;;;;;6.50;3.55;;;;;;;;;;4975922;28;20058;-82
2021/08/02 03:37:32;;;;;;;6.18;3.90;;;;;;;;;;4976522;28;20046;-82
2021/08/02 03:40:03;;;;;;;6.53;3.60;;;;;;;;;;4976300;28;20050;-82
2021/08/02 03:42:31;;;;;;;7.75;4.18;;;;;;;;;;4976283;28;20133;-82
2021/08/02 03:44:58;;;;;;;5.78;3.40;;;;;;;;;;4975939;28;20051;-82
2021/08/02 03:47:26;;;;;;;6.88;4.32;;;;;;;;;;4976529;28;20109;-82
2021/08/02 03:49:53;;;;;;;8.25;4.00;;;;;;;;;;4976692;28;20043;-82
2021/08/02 03:52:20;;;;;;;7.93;3.92;;;;;;;;;;4978110;28;20054;-84
2021/08/02 03:54:47;;;;;;;7.90;3.65;;;;;;;;;;4980249;28;20098;-82
2021/08/02 03:57:15;;;;;;;8.90;4.25;;;;;;;;;;4981146;28;20066;-83
2021/08/02 03:59:43;;;;;;;5.28;3.28;;;;;;;;;;4979683;28;20057;-83
2021/08/02 04:02:10;;;;;;;5.78;3.30;;;;;;;;;;4980500;28;20106;-83
2021/08/02 04:04:38;;;;;;;8.20;4.10;;;;;;;;;;4996719;28;20102;-85
2021/08/02 04:07:05;;;;;;;7.75;3.78;;;;;;;;;;4984612;28;20062;-83
2021/08/02 04:09:32;;;;;;;7.25;3.80;;;;;;;;;;4979768;28;20054;-82
2021/08/02 04:11:59;;;;;;;7.38;3.92;;;;;;;;;;4980481;28;20050;-83
2021/08/02 04:14:26;;;;;;;7.28;3.88;;;;;;;;;;4979659;28;20054;-83
2021/08/02 04:16:52;;;;;;;8.50;4.30;;;;;;;;;;4978821;28;20097;-83
2021/08/02 04:19:19;;;;;;;8.10;4.07;;;;;;;;;;4979772;28;20066;-83
2021/08/02 04:21:48;;;;;;;7.40;3.95;;;;;;;;;;4979560;28;20420;-83
2021/08/02 04:24:17;;;;;;;7.85;3.78;;;;;;;;;;4980017;28;20042;-82
2021/08/02 04:26:55;;;;;;;6.32;3.90;;;;;;;;;;4980607;28;20054;-83
2021/08/02 04:29:22;;;;;;;6.68;4.05;;;;;;;;;;4983085;28;20070;-83
2021/08/02 04:31:56;;;;;;;7.30;4.88;;;;;;;;;;4985754;28;20445;-83
2021/08/02 04:34:28;;;;;;;6.50;3.90;;;;;;;;;;4981847;28;20058;-83
2021/08/02 04:36:59;;;;;;;6.68;3.90;;;;;;;;;;4980471;28;20050;-82
2021/08/02 04:39:29;;;;;;;7.70;4.40;;;;;;;;;;4981066;28;20078;-82
2021/08/02 04:42:01;;;;;;;13.93;8.88;;;;;;;;;;4981457;28;20362;-82
2021/08/02 04:44:29;;;;;;;8.68;5.18;;;;;;;;;;4984954;28;20050;-82
2021/08/02 04:46:56;;;;;;;7.88;4.60;;;;;;;;;;4982031;28;20054;-84
2021/08/02 04:49:23;;;;;;;8.40;5.47;;;;;;;;;;4979718;28;20067;-84
2021/08/02 04:51:50;;;;;;;7.95;4.20;;;;;;;;;;4979756;28;20050;-83
2021/08/02 04:54:18;;;;;;;6.88;4.28;;;;;;;;;;4979724;28;20070;-83
2021/08/02 04:56:47;;;;;;;6.05;3.75;;;;;;;;;;4980325;28;20110;-83
2021/08/02 04:59:16;;;;;;;8.07;3.72;;;;;;;;;;4984129;28;20077;-83
2021/08/02 05:01:46;;;;;;;6.03;4.30;;;;;;;;;;4979611;28;20412;-82
2021/08/02 05:04:31;;;;;;;6.43;3.75;;;;;;;;;;4980404;28;20043;-84
2021/08/02 05:06:58;;;;;;;6.45;3.83;;;;;;;;;;4980334;28;20054;-83
2021/08/02 05:09:34;;;;;;;6.60;3.72;;;;;;;;;;4985879;28;20508;-84
2021/08/02 05:12:04;;;;;;;6.07;3.88;;;;;;;;;;4985653;28;20134;-83
2021/08/02 05:14:31;;;;;;;7.65;4.22;;;;;;;;;;4983672;28;20078;-84
2021/08/02 05:17:03;;;;;;;9.07;4.70;;;;;;;;;;4983476;28;20053;-85
2021/08/02 05:19:34;;;;;;;7.38;3.80;;;;;;;;;;4984255;28;20488;-84
2021/08/02 05:22:10;;;;;;;7.22;3.97;;;;;;;;;;4984075;28;20054;-83
2021/08/02 05:24:41;;;;;;;9.60;4.97;;;;;;;;;;4988130;28;20065;-83
2021/08/02 05:27:09;;;;;;;6.35;4.00;;;;;;;;;;5001621;28;20090;-84
2021/08/02 05:29:42;;;;;;;6.90;4.22;;;;;;;;;;4996186;28;20110;-83
2021/08/02 05:32:15;;;;;;;7.57;4.13;;;;;;;;;;4987211;28;20642;-82
2021/08/02 05:34:45;;;;;;;7.22;4.22;;;;;;;;;;4985032;28;20065;-83
2021/08/02 05:37:13;;;;;;;8.10;4.40;;;;;;;;;;4984729;28;20047;-84
2021/08/02 05:39:48;;;;;;;8.57;4.53;;;;;;;;;;4984917;28;20293;-84
2021/08/02 05:42:14;;;;;;;6.60;3.95;;;;;;;;;;4984200;28;20404;-83
2021/08/02 05:44:41;;;;;;;6.95;4.20;;;;;;;;;;4992041;28;20090;-85
2021/08/02 05:47:11;;;;;;;8.13;4.47;;;;;;;;;;4998180;28;20050;-83
2021/08/02 05:49:38;;;;;;;8.13;4.40;;;;;;;;;;4994793;28;20054;-82
2021/08/02 05:52:05;;;;;;;8.70;4.30;;;;;;;;;;4990341;28;20560;-82
2021/08/02 05:54:32;;;;;;;9.63;5.03;;;;;;;;;;4990988;28;20051;-84
2021/08/02 05:57:00;;;;;;;7.55;4.65;;;;;;;;;;4984487;28;20109;-84
2021/08/02 05:59:27;;;;;;;7.40;4.20;;;;;;;;;;4981919;28;20073;-84
2021/08/02 06:01:57;;;;;;;7.03;4.90;;;;;;;;;;4981124;28;20097;-83
2021/08/02 06:04:24;;;;;;;7.30;4.40;;;;;;;;;;4981733;28;20047;-83
2021/08/02 06:06:53;;;;;;;6.32;3.95;;;;;;;;;;4981359;28;20094;-82
2021/08/02 06:09:20;;;;;;;8.68;4.05;;;;;;;;;;4981790;28;20053;-83
2021/08/02 06:11:47;;;;;;;8.75;4.85;;;;;;;;;;4981884;28;20049;-83
2021/08/02 06:14:15;;;;;;;7.57;4.53;;;;;;;;;;4981722;28;20082;-83
2021/08/02 06:16:48;;;;;;;7.97;4.32;;;;;;;;;;4981554;28;20097;-83
2021/08/02 06:19:14;;;;;;;8.20;4.72;;;;;;;;;;4982350;28;20102;-84
2021/08/02 06:21:43;;;;;;;7.90;4.57;;;;;;;;;;4983209;28;20047;-84
2021/08/02 06:24:10;;;;;;;9.05;4.07;;;;;;;;;;4983349;28;20111;-83
2021/08/02 06:26:39;;;;;;;7.78;4.50;;;;;;;;;;4982843;28;20089;-83
2021/08/02 06:29:09;;;;;;;7.00;4.53;;;;;;;;;;4983312;28;20047;-83
2021/08/02 06:31:37;;;;;;;8.25;4.10;;;;;;;;;;4982719;28;20050;-83
2021/08/02 06:34:12;;;;;;;7.22;4.05;;;;;;;;;;4982544;28;20054;-83
2021/08/02 06:39:30;;;;;;;7.60;4.00;;;;;;;;;;4975483;28;20503;-83
2021/08/02 06:41:57;;;;;;;8.38;4.32;;;;;;;;;;4987424;28;20119;-84
2021/08/02 06:44:24;;;;;;;9.57;4.60;;;;;;;;;;4988515;28;20062;-83
2021/08/02 06:46:52;;;;;;;6.70;3.90;;;;;;;;;;4992004;28;20130;-83
2021/08/02 06:49:19;;;;;;;7.97;5.15;;;;;;;;;;4988506;28;20046;-83
2021/08/02 06:51:46;;;;;;;7.65;4.70;;;;;;;;;;4988279;28;20046;-83
2021/08/02 06:54:13;;;;;;;7.72;3.80;;;;;;;;;;4987870;28;20046;-85
2021/08/02 06:56:41;;;;;;;7.75;4.10;;;;;;;;;;4990077;28;20054;-85
2021/08/02 06:59:19;;;;;;;6.80;4.35;;;;;;;;;;4989505;28;20134;-84
2021/08/02 07:02:09;;;;;;;7.22;4.32;;;;;;;;;;4982383;28;20051;-83
2021/08/02 07:04:51;;;;;;;;;;;;;;;;;;4979684;28;20042;-85
2021/08/02 07:07:27;;;;;;;7.13;3.42;;;;;;;;;;4981544;28;19961;-83
2021/08/02 07:10:06;;;;;;;5.45;3.10;;;;;;;;;;4980310;28;20047;-84
2021/08/02 07:12:46;;;;;;;6.30;3.55;;;;;;;;;;4979213;28;20097;-85
2021/08/02 07:17:55;;;;;;;6.53;3.80;;;;;;;;;;4987471;28;19932;-85
2021/08/02 07:21:15;;;;;;;6.50;3.70;;;;;;;;;;4980919;28;20412;-84
2021/08/02 07:24:29;;;;;;;5.78;3.30;;;;;;;;;;4939014;29;20086;-84
2021/08/02 07:26:56;;;;;;;6.80;3.40;;;;;;;;;;4917380;28;20059;-84
2021/08/02 07:32:14;;;;;;;6.10;3.50;;;;;;;;;;4951411;28;20051;-84
2021/08/02 07:40:49;;;;;;;6.22;3.97;;;;;;;;;;4966739;28;20113;-83
2021/08/02 07:46:28;;;;;;;5.57;3.38;;;;;;;;;;4980646;28;20058;-84
2021/08/02 07:48:56;;;;;;;6.18;3.55;;;;;;;;;;4990769;28;20034;-84
2021/08/02 07:51:33;;;;;;;6.45;3.65;;;;;;;;;;4991270;28;20065;-83
2021/08/02 07:54:25;;;;;;;6.72;3.72;;;;;;;;;;4989212;28;20042;-84
2021/08/02 08:00:01;;;;;;;5.78;3.70;;;;;;;;;;4979488;28;20050;-82
2021/08/02 08:02:28;;;;;;;5.18;3.22;;;;;;;;;;4987072;28;20051;-82
2021/08/02 08:07:59;;;;;;;6.93;3.72;;;;;;;;;;4946903;29;20412;-82
2021/08/02 08:11:09;;;;;;;;;;;;;;;;;;;;;
2021/08/02 08:23:06;;;;;;;6.93;3.45;;;;;;;;;;4965108;28;20066;-82
2021/08/02 08:28:32;;;;;;;6.03;3.95;;;;;;;;;;4950026;28;20054;-80
2021/08/02 08:30:59;;;;;;;6.03;3.30;;;;;;;;;;4977768;28;20094;-81
2021/08/02 08:33:27;;;;;;;9.63;7.43;;;;;;;;;;4983768;23;20309;-82
2021/08/02 08:35:55;;;;;;;7.20;4.95;;;;;;;;;;4977194;28;20134;-81
2021/08/02 08:38:23;;;;;;;6.88;4.10;;;;;;;;;;4975102;28;20082;-81
2021/08/02 08:40:50;;;;;;;7.68;4.40;;;;;;;;;;4975324;28;20051;-81
2021/08/02 08:43:17;;;;;;;6.03;3.60;;;;;;;;;;4982965;28;20047;-81
2021/08/02 08:45:44;;;;;;;6.18;3.60;;;;;;;;;;4983812;28;20104;-82
2021/08/02 08:48:11;;;;;;;5.93;3.42;;;;;;;;;;4987918;28;20086;-82
2021/08/02 08:50:42;;;;;;;7.90;3.40;;;;;;;;;;4983208;28;20449;-82
2021/08/02 08:53:32;;;;;;;5.97;3.70;;;;;;;;;;4980575;28;20403;-82
2021/08/02 08:56:07;;;;;;;7.00;3.50;;;;;;;;;;4980284;28;20086;-82
2021/08/02 08:58:36;;;;;;;5.07;3.17;;;;;;;;;;4980022;28;20058;-82
2021/08/02 09:01:16;;;;;;;5.80;3.13;;;;;;;;;;4979878;28;20057;-82
2021/08/02 09:04:14;;;;;;;5.90;3.28;;;;;;;;;;4961987;29;20459;-82
2021/08/02 09:06:58;;;;;;;5.20;3.10;;;;;;;;;;4963148;28;20054;-83
2021/08/02 09:09:41;;;;;;;6.85;3.65;;;;;;;;;;4978827;28;20047;-84
2021/08/02 09:12:18;;;;;;;6.60;3.65;;;;;;;;;;4980171;28;20057;-85
2021/08/02 09:20:34;;;;;;;5.30;3.10;;;;;;;;;;4979913;28;20105;-83
2021/08/02 09:23:18;;;;;;;7.60;2.92;;;;;;;;;;4982310;28;20054;-83
2021/08/02 09:25:59;;;;;;;5.70;3.03;;;;;;;;;;4982480;28;20050;-83
2021/08/02 09:28:30;;;;;;;6.25;3.40;;;;;;;;;;4980972;28;20137;-86
2021/08/02 09:31:34;;;;;;;5.72;3.33;;;;;;;;;;4979500;28;20051;-84
2021/08/02 09:34:13;;;;;;;5.05;3.00;;;;;;;;;;4978653;28;20054;-84
2021/08/02 09:43:09;;;;;;;5.65;3.05;;;;;;;;;;4978052;28;20125;-84
2021/08/02 09:45:58;;;;;;;7.10;3.70;;;;;;;;;;4977088;28;20042;-86
2021/08/02 09:48:59;;;;;;;6.28;3.33;;;;;;;;;;4979949;28;20047;-84
2021/08/02 09:51:33;;;;;;;7.05;3.03;;;;;;;;;;4980891;28;20473;-84
2021/08/02 09:54:24;;;;;;;5.90;3.25;;;;;;;;;;4981486;28;20122;-84
2021/08/02 09:57:32;;;;;;;7.88;3.60;;;;;;;;;;4979282;28;20158;-83
2021/08/02 10:00:09;;;;;;;5.65;3.00;;;;;;;;;;4959718;28;20460;-83
2021/08/02 10:02:51;;;;;;;6.28;3.28;;;;;;;;;;4979609;28;20042;-84
2021/08/02 10:05:38;;;;;;;8.63;3.33;;;;;;;;;;4979590;28;20050;-84
2021/08/02 10:08:14;;;;;;;5.13;2.67;;;;;;;;;;4980664;28;20053;-85
2021/08/02 10:10:55;;;;;;;5.35;2.72;;;;;;;;;;4979604;28;20460;-83
2021/08/02 10:19:14;;;;;;;4.90;3.00;;;;;;;;;;4955544;28;20051;-84
2021/08/02 10:25:06;;;;;;;5.53;2.80;;;;;;;;;;4977609;28;20078;-84
2021/08/02 10:27:51;;;;;;;6.30;3.30;;;;;;;;;;4979360;28;20047;-82
2021/08/02 10:30:42;;;;;;;7.25;3.50;;;;;;;;;;4978134;28;20423;-82
2021/08/02 10:33:12;;;;;;;5.65;3.42;;;;;;;;;;4980657;28;20051;-82
2021/08/02 10:35:44;;;;;;;4.72;2.90;;;;;;;;;;4982281;28;20130;-84
2021/08/02 10:38:13;;;;;;;4.82;2.95;;;;;;;;;;4980958;28;20046;-83
2021/08/02 10:40:47;;;;;;;5.63;3.07;;;;;;;;;;4981350;28;20050;-84
2021/08/02 10:43:25;;;;;;;7.65;3.50;;;;;;;;;;4980142;28;20093;-83
2021/08/02 10:45:54;;;;;;;5.88;3.08;;;;;;;;;;4962411;29;20057;-81
2021/08/02 10:48:30;;;;;;;5.00;2.72;;;;;;;;;;4964789;28;20117;-81
2021/08/02 10:51:11;;;;;;;6.53;3.38;;;;;;;;;;4983944;28;20054;-82
2021/08/02 10:53:38;;;;;;;6.80;3.17;;;;;;;;;;4983328;28;20451;-85
2021/08/02 10:56:10;;;;;;;7.95;3.58;;;;;;;;;;4983999;28;20055;-83
2021/08/02 11:01:46;;;;;;;5.95;2.72;;;;;;;;;;4984824;28;20061;-79
2021/08/02 11:04:14;;;;;;;7.00;3.17;;;;;;;;;;4981832;28;20050;-80
2021/08/02 11:06:41;;;;;;;8.88;3.63;;;;;;;;;;4976571;28;20047;-80
2021/08/02 11:09:08;;;;;;;7.68;5.18;;;;;;;;;;4977217;28;20049;-80
2021/08/02 11:11:37;;;;;;;6.35;4.20;;;;;;;;;;4977237;28;20508;-79
2021/08/02 11:14:09;;;;;;;4.77;2.50;;;;;;;;;;4977510;28;20055;-80
2021/08/02 11:16:42;;;;;;;4.18;2.30;;;;;;;;;;4977904;28;20051;-79
2021/08/02 11:19:20;;;;;;;4.70;2.53;;;;;;;;;;4974646;28;20134;-79
2021/08/02 11:21:47;;;;;;;4.97;2.35;;;;;;;;;;4977904;28;20066;-79
2021/08/02 11:24:15;;;;;;;5.57;2.80;;;;;;;;;;4977893;28;20408;-78
2021/08/02 11:26:51;;;;;;;5.00;2.67;;;;;;;;;;4982623;28;20050;-78
2021/08/02 11:29:27;;;;;;;6.10;2.95;;;;;;;;;;5133703;27;20380;-79
2021/08/02 11:31:59;;;;;;;6.18;3.08;;;;;;;;;;5136362;27;20549;-79
2021/08/02 11:34:27;;;;;;;5.70;3.22;;;;;;;;;;5115987;28;20051;-79
2021/08/02 11:37:02;;;;;;;4.68;2.97;;;;;;;;;;5118252;28;20047;-79
2021/08/02 11:39:29;;;;;;;9.57;7.78;;;;;;;;;;5114529;28;20048;-80
2021/08/02 11:42:01;;;;;;;6.18;3.83;;;;;;;;;;5115253;28;20107;-80
2021/08/02 11:44:30;;;;;;;6.45;3.40;;;;;;;;;;5121582;28;20042;-80
2021/08/02 11:46:57;;;;;;;5.15;3.13;;;;;;;;;;5119455;28;20048;-80
2021/08/02 11:49:24;;;;;;;4.47;2.75;;;;;;;;;;5119934;28;20474;-79
2021/08/02 11:51:52;;;;;;;7.20;2.85;;;;;;;;;;5120448;28;20036;-79
2021/08/02 11:54:20;;;;;;;4.88;2.90;;;;;;;;;;5120986;28;20048;-79
2021/08/02 11:56:47;;;;;;;5.07;2.50;;;;;;;;;;5117447;28;20051;-78
2021/08/02 11:59:20;;;;;;;5.93;2.97;;;;;;;;;;5117061;28;20124;-79
2021/08/02 12:01:50;;;;;;;4.82;2.70;;;;;;;;;;5116934;28;20048;-79
2021/08/02 12:04:18;;;;;;;3.70;1.92;;;;;;;;;;5118011;28;20117;-78
2021/08/02 12:06:52;;;;;;;4.55;1.95;;;;;;;;;;5117730;28;20036;-78
2021/08/02 12:09:29;;;;;;;3.42;2.17;;;;;;;;;;5114115;28;20061;-78
2021/08/02 12:11:57;;;;;;;4.72;2.00;;;;;;;;;;5116486;28;20117;-79
2021/08/02 12:14:24;;;;;;;5.00;2.10;;;;;;;;;;5118697;28;20043;-78
2021/08/02 12:17:03;;;;;;;3.80;2.10;;;;;;;;;;5117464;28;20054;-80
2021/08/02 12:19:30;;;;;;;3.65;2.00;;;;;;;;;;5117939;28;20055;-79
2021/08/02 12:21:59;;;;;;;5.15;2.00;;;;;;;;;;5119959;28;20040;-79
2021/08/02 12:24:26;;;;;;;3.75;2.08;;;;;;;;;;5115713;28;20528;-79
2021/08/02 12:26:56;;;;;;;3.72;2.00;;;;;;;;;;5115740;28;20039;-78
2021/08/02 12:29:25;;;;;;;4.50;2.15;;;;;;;;;;5116421;28;20532;-80
2021/08/02 12:31:56;;;;;;;3.50;1.95;;;;;;;;;;5120596;28;20043;-79
2021/08/02 12:34:25;;;;;;;3.90;2.28;;;;;;;;;;5117212;28;20077;-78
2021/08/02 12:36:54;;;;;;;3.92;2.00;;;;;;;;;;5116045;28;20097;-78
2021/08/02 12:39:21;;;;;;;3.88;2.38;;;;;;;;;;5111007;28;20079;-78
2021/08/02 12:41:47;;;;;;;3.90;2.28;;;;;;;;;;5101468;28;20070;-79
2021/08/02 12:44:14;;;;;;;4.50;2.10;;;;;;;;;;5105922;28;20056;-78
2021/08/02 12:46:41;;;;;;;4.55;2.35;;;;;;;;;;5107907;28;20462;-79
2021/08/02 12:49:09;;;;;;;5.15;2.50;;;;;;;;;;5109509;28;20625;-79
2021/08/02 12:51:37;;;;;;;4.07;2.50;;;;;;;;;;5106783;28;20033;-79
2021/08/02 12:54:04;;;;;;;6.50;2.83;;;;;;;;;;5109950;28;20048;-79
2021/08/02 12:56:30;;;;;;;4.13;2.55;;;;;;;;;;5106854;28;20055;-79
2021/08/02 12:58:58;;;;;;;6.53;2.22;;;;;;;;;;5107252;28;20052;-78
2021/08/02 13:01:24;;;;;;;4.03;2.45;;;;;;;;;;5108675;28;20036;-78
2021/08/02 13:03:51;;;;;;;5.88;2.75;;;;;;;;;;5106740;28;20076;-79
2021/08/02 13:06:20;;;;;;;4.85;2.60;;;;;;;;;;5106003;28;20044;-79
2021/08/02 13:08:48;;;;;;;5.20;2.55;;;;;;;;;;5106377;28;20056;-80
2021/08/02 13:11:15;;;;;;;3.85;2.10;;;;;;;;;;5106999;28;20044;-80
2021/08/02 13:13:42;;;;;;;3.70;2.13;;;;;;;;;;5106744;28;20113;-79
2021/08/02 13:16:08;;;;;;;3.50;2.10;;;;;;;;;;5105483;28;20078;-80
2021/08/02 13:18:36;;;;;;;3.35;2.10;;;;;;;;;;5107091;28;20081;-80
2021/08/02 13:21:03;;;;;;;5.15;1.85;;;;;;;;;;5105151;28;20051;-80
2021/08/02 13:26:55;;;;;;;4.18;2.25;;;;;;;;;;5105881;28;20044;-80
2021/08/02 13:29:10;;;;;;;4.10;1.77;;;;;;;;;;5085894;28;20051;-79
2021/08/02 13:31:43;;;;;;;3.95;1.95;;;;;;;;;;5092034;28;20578;-79
2021/08/02 13:34:14;;;;;;;3.17;1.67;;;;;;;;;;5106557;28;20044;-80
2021/08/02 13:36:41;;;;;;;3.97;2.10;;;;;;;;;;5103616;28;20074;-78
2021/08/02 13:39:09;;;;;;;3.78;2.00;;;;;;;;;;5105783;28;20052;-80
2021/08/02 13:41:37;;;;;;;4.38;2.03;;;;;;;;;;5114738;28;20078;-80
2021/08/02 13:44:05;;;;;;;4.78;1.95;;;;;;;;;;5117470;28;20061;-79
2021/08/02 13:46:32;;;;;;;4.13;1.90;;;;;;;;;;5118378;28;20048;-79
2021/08/02 13:48:59;;;;;;;8.73;2.03;;;;;;;;;;5118874;28;20101;-78
2021/08/02 13:51:27;;;;;;;4.03;2.03;;;;;;;;;;5117643;28;20032;-80
2021/08/02 13:53:53;;;;;;;4.35;1.85;;;;;;;;;;5118163;28;20024;-81
2021/08/02 13:56:21;;;;;;;5.78;2.05;;;;;;;;;;5115213;28;20048;-79
2021/08/02 13:58:49;;;;;;;3.75;2.10;;;;;;;;;;5101412;28;20640;-80
2021/08/02 14:01:16;;;;;;;3.15;1.95;;;;;;;;;;5099837;28;20044;-80
2021/08/02 14:03:42;;;;;;;4.22;1.95;;;;;;;;;;5100292;28;20043;-80
2021/08/02 14:06:09;;;;;;;4.85;2.58;;;;;;;;;;5100064;28;20044;-80
2021/08/02 14:08:36;;;;;;;4.05;2.08;;;;;;;;;;5098914;28;20097;-80
2021/08/02 14:11:04;;;;;;;6.15;2.42;;;;;;;;;;5099933;28;20480;-80
2021/08/02 14:13:34;;;;;;;3.63;1.95;;;;;;;;;;5098249;28;20040;-81
2021/08/02 14:16:04;;;;;;;4.13;2.10;;;;;;;;;;5098960;28;20067;-80
2021/08/02 14:18:36;;;;;;;3.50;1.90;;;;;;;;;;5098982;28;20051;-80
2021/08/02 14:21:03;;;;;;;2.85;1.63;;;;;;;;;;5098978;28;20077;-80
2021/08/02 14:23:31;;;;;;;2.97;1.85;;;;;;;;;;5099645;28;20044;-79
2021/08/02 14:25:57;;;;;;;3.92;2.17;;;;;;;;;;5099895;28;20052;-80
2021/08/02 14:28:25;;;;;;;4.18;2.03;;;;;;;;;;5098751;28;20094;-80
2021/08/02 14:30:54;;;;;;;5.35;2.20;;;;;;;;;;5098977;28;20040;-80
2021/08/02 14:33:22;;;;;;;3.28;2.08;;;;;;;;;;5097765;28;20044;-79
2021/08/02 14:35:54;;;;;;;3.50;2.05;;;;;;;;;;5097904;28;20036;-79
2021/08/02 14:38:21;;;;;;;3.97;2.08;;;;;;;;;;5097629;28;20044;-81
2021/08/02 14:40:50;;;;;;;3.13;1.98;;;;;;;;;;5099876;28;20048;-80
2021/08/02 14:43:20;;;;;;;3.65;1.90;;;;;;;;;;5099480;28;20051;-80
2021/08/02 14:45:47;;;;;;;3.53;2.80;;;;;;;;;;5096391;28;20048;-81
2021/08/02 14:48:16;;;;;;;3.10;1.90;;;;;;;;;;5099332;28;20052;-80
2021/08/02 14:50:49;;;;;;;4.28;2.13;;;;;;;;;;5099219;28;20074;-81
2021/08/02 14:53:16;;;;;;;3.97;2.00;;;;;;;;;;5099938;28;20048;-80
2021/08/02 14:55:44;;;;;;;4.45;2.15;;;;;;;;;;5100988;28;20101;-79
2021/08/02 14:58:12;;;;;;;4.30;1.80;;;;;;;;;;5100029;28;20036;-79
2021/08/02 15:00:40;;;;;;;4.30;2.42;;;;;;;;;;5100137;28;20051;-79
2021/08/02 15:03:08;;;;;;;6.03;3.00;;;;;;;;;;5097332;28;20048;-80
2021/08/02 15:05:36;;;;;;;4.35;2.22;;;;;;;;;;5108903;28;20020;-80
2021/08/02 15:08:05;;;;;;;6.45;2.75;;;;;;;;;;5116956;28;20702;-81
2021/08/02 15:10:33;;;;;;;3.70;2.40;;;;;;;;;;5117400;28;20072;-81
2021/08/02 15:13:00;;;;;;;4.50;2.33;;;;;;;;;;5109124;28;20043;-80
2021/08/02 15:15:27;;;;;;;5.90;3.70;;;;;;;;;;5104632;28;20048;-79
2021/08/02 15:17:55;;;;;;;5.05;2.47;;;;;;;;;;5110372;28;20113;-80
2021/08/02 15:20:24;;;;;;;3.65;2.17;;;;;;;;;;5116185;28;20042;-79
2021/08/02 15:22:52;;;;;;;5.03;2.03;;;;;;;;;;5115408;28;20143;-79
2021/08/02 15:25:22;;;;;;;5.40;2.25;;;;;;;;;;5117375;28;20044;-80
2021/08/02 15:27:50;;;;;;;3.47;2.10;;;;;;;;;;5117637;28;20036;-80
2021/08/02 15:30:17;;;;;;;3.95;2.13;;;;;;;;;;5117006;28;20032;-80
2021/08/02 15:32:48;;;;;;;6.80;2.45;;;;;;;;;;5116664;28;20032;-80
2021/08/02 15:35:16;;;;;;;3.60;2.03;;;;;;;;;;5115465;28;20654;-81
2021/08/02 15:37:43;;;;;;;3.97;2.17;;;;;;;;;;5116285;28;20055;-80
2021/08/02 15:40:12;;;;;;;3.00;1.95;;;;;;;;;;5117505;28;20044;-80
2021/08/02 15:42:41;;;;;;;3.63;2.28;;;;;;;;;;5117556;28;20040;-80
2021/08/02 15:45:10;;;;;;;3.87;2.33;;;;;;;;;;5117561;28;20036;-79
2021/08/02 15:47:42;;;;;;;3.55;1.88;;;;;;;;;;5117217;28;20032;-81
2021/08/02 15:50:10;;;;;;;3.95;2.17;;;;;;;;;;5115766;28;20040;-79
2021/08/02 15:52:40;;;;;;;4.32;2.10;;;;;;;;;;5115993;28;20080;-81
2021/08/02 15:55:08;;;;;;;3.03;2.00;;;;;;;;;;5112939;28;20036;-80
2021/08/02 15:57:43;;;;;;;4.13;2.10;;;;;;;;;;5116797;28;20078;-80
2021/08/02 16:00:13;;;;;;;3.55;2.25;;;;;;;;;;5116683;28;20040;-80
2021/08/02 16:02:59;;;;;;;4.05;2.30;;;;;;;;;;5116593;28;20065;-79
2021/08/02 16:05:30;;;;;;;5.35;2.20;;;;;;;;;;5116348;28;20036;-80
2021/08/02 16:08:02;;;;;;;3.42;2.13;;;;;;;;;;5116437;28;20051;-80
2021/08/02 16:10:33;;;;;;;3.40;1.85;;;;;;;;;;5115918;28;20028;-80
2021/08/02 16:13:02;;;;;;;4.35;2.58;;;;;;;;;;5115841;28;20036;-80
2021/08/02 16:15:28;;;;;;;4.97;2.53;;;;;;;;;;5117533;28;20028;-80
2021/08/02 16:17:55;;;;;;;3.60;2.20;;;;;;;;;;5119165;28;20101;-82
2021/08/02 16:20:25;;;;;;;4.72;2.60;;;;;;;;;;5119951;28;20036;-81
2021/08/02 16:22:52;;;;;;;5.55;2.90;;;;;;;;;;5120194;28;20141;-80
2021/08/02 16:25:20;;;;;;;4.25;2.33;;;;;;;;;;5118955;28;20081;-80